﻿<?xml version="1.0" encoding="UTF-8" standalone="no" ?>
<gpx xmlns="http://www.topografix.com/GPX/1/1" creator="CompeGPS" version="1.1" xmlns:xsi="http://www.w3.org/2001/XMLSchema-instance" xsi:schemaLocation="http://www.topografix.com/GPX/1/1 http://www.topografix.com/GPX/1/1/gpx.xsd http://www.garmin.com/xmlschemas/GpxExtensions/v3 http://www.garmin.com/xmlschemas/GpxExtensionsv3.xsd http://www.garmin.com/xmlschemas/TrackPointExtension/v1 http://www.garmin.com/xmlschemas/TrackPointExtensionv1.xsd" xmlns:gpxtpx="http://www.garmin.com/xmlschemas/TrackPointExtension/v1">
  <metadata>
    <link href="http://www.compegps.com">
      <text>CompeGPS TEAM, SL</text>
    </link>
    <time>2013-02-21T12:55:09Z</time>
    <bounds maxlat="42.894830" maxlon="0.906952" minlat="42.888006" minlon="0.886118"/>
  </metadata>
<wpt lat="42.892336" lon="0.886375">
<name>Parking</name>
<ele>1020</ele>
</wpt>
<wpt lat="42.894433" lon="0.889757">
<name>Bif.col de Nede</name>
<ele>1130</ele>
</wpt>
<wpt lat="42.890511" lon="0.901471">
<name>Sortie de la foret</name>
<ele>1350</ele>
</wpt>
<wpt lat="42.894057" lon="0.904920">
<name>Pic de Nede</name>
<ele>1637</ele>
</wpt>
  <trk>
    <name>pic de nede</name>
    <trkseg>
      <trkpt lat="42.892336" lon="0.886375">
        <ele>1032.1</ele>
        <time>2013-02-20T08:39:13Z</time>
        <name>Parking</name>
      </trkpt>
      <trkpt lat="42.892254" lon="0.886362">
        <ele>1032.6</ele>
        <time>2013-02-20T08:39:21Z</time>
      </trkpt>
      <trkpt lat="42.892178" lon="0.886450">
        <ele>1033.1</ele>
        <time>2013-02-20T08:39:33Z</time>
      </trkpt>
      <trkpt lat="42.892156" lon="0.886615">
        <ele>1033.1</ele>
        <time>2013-02-20T08:39:45Z</time>
      </trkpt>
      <trkpt lat="42.892130" lon="0.886764">
        <ele>1033.6</ele>
        <time>2013-02-20T08:39:56Z</time>
      </trkpt>
      <trkpt lat="42.892104" lon="0.886891">
        <ele>1034.0</ele>
        <time>2013-02-20T08:40:08Z</time>
      </trkpt>
      <trkpt lat="42.892110" lon="0.886945">
        <ele>1035.0</ele>
        <time>2013-02-20T08:41:01Z</time>
      </trkpt>
      <trkpt lat="42.892069" lon="0.887078">
        <ele>1035.5</ele>
        <time>2013-02-20T08:41:14Z</time>
      </trkpt>
      <trkpt lat="42.892041" lon="0.887221">
        <ele>1035.5</ele>
        <time>2013-02-20T08:41:26Z</time>
      </trkpt>
      <trkpt lat="42.891954" lon="0.887302">
        <ele>1035.5</ele>
        <time>2013-02-20T08:41:40Z</time>
      </trkpt>
      <trkpt lat="42.891880" lon="0.887200">
        <ele>1037.4</ele>
        <time>2013-02-20T08:41:51Z</time>
      </trkpt>
      <trkpt lat="42.891832" lon="0.887102">
        <ele>1039.3</ele>
        <time>2013-02-20T08:42:03Z</time>
      </trkpt>
      <trkpt lat="42.891787" lon="0.886964">
        <ele>1039.8</ele>
        <time>2013-02-20T08:42:18Z</time>
      </trkpt>
      <trkpt lat="42.891720" lon="0.886840">
        <ele>1041.2</ele>
        <time>2013-02-20T08:42:30Z</time>
      </trkpt>
      <trkpt lat="42.891625" lon="0.886501">
        <ele>1050.3</ele>
        <time>2013-02-20T08:42:43Z</time>
      </trkpt>
      <trkpt lat="42.891599" lon="0.886144">
        <ele>1044.2</ele>
        <time>2013-02-20T08:42:58Z</time>
      </trkpt>
      <trkpt lat="42.891505" lon="0.886123">
        <ele>1044.6</ele>
        <time>2013-02-20T08:43:16Z</time>
      </trkpt>
      <trkpt lat="42.891505" lon="0.886365">
        <ele>1048.9</ele>
        <time>2013-02-20T08:44:19Z</time>
      </trkpt>
      <trkpt lat="42.891531" lon="0.886630">
        <ele>1053.3</ele>
        <time>2013-02-20T08:44:32Z</time>
      </trkpt>
      <trkpt lat="42.891576" lon="0.886777">
        <ele>1051.8</ele>
        <time>2013-02-20T08:44:44Z</time>
      </trkpt>
      <trkpt lat="42.891604" lon="0.886945">
        <ele>1052.3</ele>
        <time>2013-02-20T08:44:58Z</time>
      </trkpt>
      <trkpt lat="42.891651" lon="0.887085">
        <ele>1053.7</ele>
        <time>2013-02-20T08:45:11Z</time>
      </trkpt>
      <trkpt lat="42.891670" lon="0.887231">
        <ele>1055.2</ele>
        <time>2013-02-20T08:45:25Z</time>
      </trkpt>
      <trkpt lat="42.891682" lon="0.887361">
        <ele>1057.1</ele>
        <time>2013-02-20T08:45:37Z</time>
      </trkpt>
      <trkpt lat="42.891711" lon="0.887531">
        <ele>1057.6</ele>
        <time>2013-02-20T08:45:51Z</time>
      </trkpt>
      <trkpt lat="42.891691" lon="0.887671">
        <ele>1058.6</ele>
        <time>2013-02-20T08:46:04Z</time>
      </trkpt>
      <trkpt lat="42.891712" lon="0.887848">
        <ele>1060.5</ele>
        <time>2013-02-20T08:46:18Z</time>
      </trkpt>
      <trkpt lat="42.891750" lon="0.887971">
        <ele>1061.9</ele>
        <time>2013-02-20T08:46:31Z</time>
      </trkpt>
      <trkpt lat="42.891776" lon="0.888097">
        <ele>1063.4</ele>
        <time>2013-02-20T08:46:43Z</time>
      </trkpt>
      <trkpt lat="42.891798" lon="0.888244">
        <ele>1063.8</ele>
        <time>2013-02-20T08:46:57Z</time>
      </trkpt>
      <trkpt lat="42.891829" lon="0.888405">
        <ele>1065.3</ele>
        <time>2013-02-20T08:47:10Z</time>
      </trkpt>
      <trkpt lat="42.891853" lon="0.888559">
        <ele>1066.2</ele>
        <time>2013-02-20T08:47:24Z</time>
      </trkpt>
      <trkpt lat="42.891846" lon="0.888717">
        <ele>1067.2</ele>
        <time>2013-02-20T08:47:38Z</time>
      </trkpt>
      <trkpt lat="42.891800" lon="0.888894">
        <ele>1068.6</ele>
        <time>2013-02-20T08:47:53Z</time>
      </trkpt>
      <trkpt lat="42.891776" lon="0.889074">
        <ele>1069.6</ele>
        <time>2013-02-20T08:48:07Z</time>
      </trkpt>
      <trkpt lat="42.891712" lon="0.889264">
        <ele>1071.1</ele>
        <time>2013-02-20T08:48:24Z</time>
      </trkpt>
      <trkpt lat="42.891633" lon="0.889414">
        <ele>1073.0</ele>
        <time>2013-02-20T08:48:40Z</time>
      </trkpt>
      <trkpt lat="42.891593" lon="0.889620">
        <ele>1073.9</ele>
        <time>2013-02-20T08:48:54Z</time>
      </trkpt>
      <trkpt lat="42.891505" lon="0.889732">
        <ele>1075.8</ele>
        <time>2013-02-20T08:49:09Z</time>
      </trkpt>
      <trkpt lat="42.891409" lon="0.889773">
        <ele>1076.3</ele>
        <time>2013-02-20T08:49:21Z</time>
      </trkpt>
      <trkpt lat="42.891327" lon="0.889880">
        <ele>1077.8</ele>
        <time>2013-02-20T08:49:33Z</time>
      </trkpt>
      <trkpt lat="42.891227" lon="0.889973">
        <ele>1078.3</ele>
        <time>2013-02-20T08:49:44Z</time>
      </trkpt>
      <trkpt lat="42.891144" lon="0.890056">
        <ele>1078.7</ele>
        <time>2013-02-20T08:49:57Z</time>
      </trkpt>
      <trkpt lat="42.891055" lon="0.890149">
        <ele>1080.2</ele>
        <time>2013-02-20T08:50:11Z</time>
      </trkpt>
      <trkpt lat="42.890985" lon="0.890225">
        <ele>1081.1</ele>
        <time>2013-02-20T08:50:24Z</time>
      </trkpt>
      <trkpt lat="42.890915" lon="0.890381">
        <ele>1082.1</ele>
        <time>2013-02-20T08:50:36Z</time>
      </trkpt>
      <trkpt lat="42.890856" lon="0.890493">
        <ele>1083.1</ele>
        <time>2013-02-20T08:50:47Z</time>
      </trkpt>
      <trkpt lat="42.890784" lon="0.890613">
        <ele>1084.0</ele>
        <time>2013-02-20T08:51:00Z</time>
      </trkpt>
      <trkpt lat="42.890697" lon="0.890714">
        <ele>1085.5</ele>
        <time>2013-02-20T08:51:13Z</time>
      </trkpt>
      <trkpt lat="42.890603" lon="0.890795">
        <ele>1086.4</ele>
        <time>2013-02-20T08:51:26Z</time>
      </trkpt>
      <trkpt lat="42.890523" lon="0.890868">
        <ele>1086.9</ele>
        <time>2013-02-20T08:51:36Z</time>
      </trkpt>
      <trkpt lat="42.890478" lon="0.890972">
        <ele>1089.3</ele>
        <time>2013-02-20T08:56:51Z</time>
      </trkpt>
      <trkpt lat="42.890566" lon="0.891106">
        <ele>1089.8</ele>
        <time>2013-02-20T08:57:42Z</time>
      </trkpt>
      <trkpt lat="42.890651" lon="0.891162">
        <ele>1090.8</ele>
        <time>2013-02-20T08:57:56Z</time>
      </trkpt>
      <trkpt lat="42.890763" lon="0.891138">
        <ele>1092.2</ele>
        <time>2013-02-20T08:58:10Z</time>
      </trkpt>
      <trkpt lat="42.890856" lon="0.891093">
        <ele>1093.6</ele>
        <time>2013-02-20T08:58:25Z</time>
      </trkpt>
      <trkpt lat="42.890988" lon="0.891037">
        <ele>1094.6</ele>
        <time>2013-02-20T08:58:39Z</time>
      </trkpt>
      <trkpt lat="42.891100" lon="0.890969">
        <ele>1096.5</ele>
        <time>2013-02-20T08:58:53Z</time>
      </trkpt>
      <trkpt lat="42.891196" lon="0.890905">
        <ele>1097.0</ele>
        <time>2013-02-20T08:59:06Z</time>
      </trkpt>
      <trkpt lat="42.891294" lon="0.890835">
        <ele>1098.4</ele>
        <time>2013-02-20T08:59:20Z</time>
      </trkpt>
      <trkpt lat="42.891440" lon="0.890745">
        <ele>1099.4</ele>
        <time>2013-02-20T08:59:34Z</time>
      </trkpt>
      <trkpt lat="42.891556" lon="0.890663">
        <ele>1100.8</ele>
        <time>2013-02-20T08:59:47Z</time>
      </trkpt>
      <trkpt lat="42.891694" lon="0.890611">
        <ele>1101.8</ele>
        <time>2013-02-20T09:00:02Z</time>
      </trkpt>
      <trkpt lat="42.891807" lon="0.890573">
        <ele>1102.8</ele>
        <time>2013-02-20T09:00:16Z</time>
      </trkpt>
      <trkpt lat="42.891948" lon="0.890489">
        <ele>1103.7</ele>
        <time>2013-02-20T09:00:32Z</time>
      </trkpt>
      <trkpt lat="42.892090" lon="0.890492">
        <ele>1105.2</ele>
        <time>2013-02-20T09:00:47Z</time>
      </trkpt>
      <trkpt lat="42.892254" lon="0.890481">
        <ele>1106.1</ele>
        <time>2013-02-20T09:01:04Z</time>
      </trkpt>
      <trkpt lat="42.892323" lon="0.890354">
        <ele>1107.6</ele>
        <time>2013-02-20T09:01:18Z</time>
      </trkpt>
      <trkpt lat="42.892405" lon="0.890246">
        <ele>1109.0</ele>
        <time>2013-02-20T09:01:30Z</time>
      </trkpt>
      <trkpt lat="42.892503" lon="0.890151">
        <ele>1110.5</ele>
        <time>2013-02-20T09:01:44Z</time>
      </trkpt>
      <trkpt lat="42.892599" lon="0.890036">
        <ele>1111.9</ele>
        <time>2013-02-20T09:01:57Z</time>
      </trkpt>
      <trkpt lat="42.892708" lon="0.889944">
        <ele>1112.9</ele>
        <time>2013-02-20T09:02:09Z</time>
      </trkpt>
      <trkpt lat="42.892769" lon="0.889833">
        <ele>1114.8</ele>
        <time>2013-02-20T09:02:24Z</time>
      </trkpt>
      <trkpt lat="42.892877" lon="0.889772">
        <ele>1116.2</ele>
        <time>2013-02-20T09:02:38Z</time>
      </trkpt>
      <trkpt lat="42.893018" lon="0.889686">
        <ele>1117.7</ele>
        <time>2013-02-20T09:02:53Z</time>
      </trkpt>
      <trkpt lat="42.893103" lon="0.889550">
        <ele>1119.1</ele>
        <time>2013-02-20T09:03:07Z</time>
      </trkpt>
      <trkpt lat="42.893246" lon="0.889512">
        <ele>1120.6</ele>
        <time>2013-02-20T09:03:23Z</time>
      </trkpt>
      <trkpt lat="42.893382" lon="0.889552">
        <ele>1121.5</ele>
        <time>2013-02-20T09:03:39Z</time>
      </trkpt>
      <trkpt lat="42.893527" lon="0.889598">
        <ele>1122.5</ele>
        <time>2013-02-20T09:03:54Z</time>
      </trkpt>
      <trkpt lat="42.893673" lon="0.889672">
        <ele>1123.9</ele>
        <time>2013-02-20T09:04:12Z</time>
      </trkpt>
      <trkpt lat="42.893815" lon="0.889670">
        <ele>1126.3</ele>
        <time>2013-02-20T09:04:32Z</time>
      </trkpt>
      <trkpt lat="42.893965" lon="0.889647">
        <ele>1127.8</ele>
        <time>2013-02-20T09:04:48Z</time>
      </trkpt>
      <trkpt lat="42.894138" lon="0.889648">
        <ele>1130.7</ele>
        <time>2013-02-20T09:05:08Z</time>
      </trkpt>
      <trkpt lat="42.894288" lon="0.889684">
        <ele>1132.1</ele>
        <time>2013-02-20T09:05:24Z</time>
      </trkpt>
      <trkpt lat="42.894433" lon="0.889757">
        <ele>1135.0</ele>
        <time>2013-02-20T09:05:44Z</time>
        <name>Bif.col de Nede</name>
      </trkpt>
      <trkpt lat="42.894316" lon="0.889845">
        <ele>1135.9</ele>
        <time>2013-02-20T09:06:34Z</time>
      </trkpt>
      <trkpt lat="42.894190" lon="0.889871">
        <ele>1137.4</ele>
        <time>2013-02-20T09:06:49Z</time>
      </trkpt>
      <trkpt lat="42.894082" lon="0.889911">
        <ele>1137.9</ele>
        <time>2013-02-20T09:07:04Z</time>
      </trkpt>
      <trkpt lat="42.893932" lon="0.889984">
        <ele>1139.8</ele>
        <time>2013-02-20T09:07:23Z</time>
      </trkpt>
      <trkpt lat="42.893793" lon="0.890092">
        <ele>1139.8</ele>
        <time>2013-02-20T09:07:42Z</time>
      </trkpt>
      <trkpt lat="42.893661" lon="0.890213">
        <ele>1141.2</ele>
        <time>2013-02-20T09:07:59Z</time>
      </trkpt>
      <trkpt lat="42.893534" lon="0.890300">
        <ele>1142.7</ele>
        <time>2013-02-20T09:08:16Z</time>
      </trkpt>
      <trkpt lat="42.893418" lon="0.890368">
        <ele>1143.6</ele>
        <time>2013-02-20T09:08:35Z</time>
      </trkpt>
      <trkpt lat="42.893323" lon="0.890472">
        <ele>1146.5</ele>
        <time>2013-02-20T09:08:51Z</time>
      </trkpt>
      <trkpt lat="42.893185" lon="0.890562">
        <ele>1147.0</ele>
        <time>2013-02-20T09:09:11Z</time>
      </trkpt>
      <trkpt lat="42.893077" lon="0.890682">
        <ele>1148.9</ele>
        <time>2013-02-20T09:09:27Z</time>
      </trkpt>
      <trkpt lat="42.892957" lon="0.890732">
        <ele>1150.3</ele>
        <time>2013-02-20T09:09:43Z</time>
      </trkpt>
      <trkpt lat="42.892863" lon="0.890891">
        <ele>1151.8</ele>
        <time>2013-02-20T09:10:01Z</time>
      </trkpt>
      <trkpt lat="42.892794" lon="0.890998">
        <ele>1153.7</ele>
        <time>2013-02-20T09:10:17Z</time>
      </trkpt>
      <trkpt lat="42.892733" lon="0.891131">
        <ele>1156.1</ele>
        <time>2013-02-20T09:10:33Z</time>
      </trkpt>
      <trkpt lat="42.892676" lon="0.891270">
        <ele>1157.6</ele>
        <time>2013-02-20T09:10:48Z</time>
      </trkpt>
      <trkpt lat="42.892609" lon="0.891397">
        <ele>1159.5</ele>
        <time>2013-02-20T09:11:05Z</time>
      </trkpt>
      <trkpt lat="42.892527" lon="0.891548">
        <ele>1160.4</ele>
        <time>2013-02-20T09:11:20Z</time>
      </trkpt>
      <trkpt lat="42.892414" lon="0.891658">
        <ele>1160.4</ele>
        <time>2013-02-20T09:11:37Z</time>
      </trkpt>
      <trkpt lat="42.892293" lon="0.891733">
        <ele>1161.9</ele>
        <time>2013-02-20T09:11:51Z</time>
      </trkpt>
      <trkpt lat="42.892190" lon="0.891881">
        <ele>1162.4</ele>
        <time>2013-02-20T09:12:06Z</time>
      </trkpt>
      <trkpt lat="42.892096" lon="0.891969">
        <ele>1159.5</ele>
        <time>2013-02-20T09:12:22Z</time>
      </trkpt>
      <trkpt lat="42.891995" lon="0.892042">
        <ele>1163.8</ele>
        <time>2013-02-20T09:12:37Z</time>
      </trkpt>
      <trkpt lat="42.891902" lon="0.892155">
        <ele>1164.8</ele>
        <time>2013-02-20T09:12:58Z</time>
      </trkpt>
      <trkpt lat="42.891823" lon="0.892268">
        <ele>1167.2</ele>
        <time>2013-02-20T09:13:17Z</time>
      </trkpt>
      <trkpt lat="42.891721" lon="0.892364">
        <ele>1168.6</ele>
        <time>2013-02-20T09:13:37Z</time>
      </trkpt>
      <trkpt lat="42.891637" lon="0.892506">
        <ele>1169.6</ele>
        <time>2013-02-20T09:13:50Z</time>
      </trkpt>
      <trkpt lat="42.891543" lon="0.892604">
        <ele>1171.0</ele>
        <time>2013-02-20T09:14:04Z</time>
      </trkpt>
      <trkpt lat="42.891469" lon="0.892687">
        <ele>1172.0</ele>
        <time>2013-02-20T09:14:20Z</time>
      </trkpt>
      <trkpt lat="42.891367" lon="0.892754">
        <ele>1174.9</ele>
        <time>2013-02-20T09:14:44Z</time>
      </trkpt>
      <trkpt lat="42.891183" lon="0.892939">
        <ele>1176.8</ele>
        <time>2013-02-20T09:15:13Z</time>
      </trkpt>
      <trkpt lat="42.891046" lon="0.893082">
        <ele>1178.2</ele>
        <time>2013-02-20T09:15:34Z</time>
      </trkpt>
      <trkpt lat="42.890976" lon="0.893223">
        <ele>1179.2</ele>
        <time>2013-02-20T09:15:52Z</time>
      </trkpt>
      <trkpt lat="42.890854" lon="0.893326">
        <ele>1180.6</ele>
        <time>2013-02-20T09:16:10Z</time>
      </trkpt>
      <trkpt lat="42.890763" lon="0.893414">
        <ele>1182.1</ele>
        <time>2013-02-20T09:16:30Z</time>
      </trkpt>
      <trkpt lat="42.890652" lon="0.893554">
        <ele>1183.0</ele>
        <time>2013-02-20T09:16:52Z</time>
      </trkpt>
      <trkpt lat="42.890559" lon="0.893666">
        <ele>1184.5</ele>
        <time>2013-02-20T09:17:07Z</time>
      </trkpt>
      <trkpt lat="42.890451" lon="0.893766">
        <ele>1185.0</ele>
        <time>2013-02-20T09:17:24Z</time>
      </trkpt>
      <trkpt lat="42.890337" lon="0.893844">
        <ele>1186.4</ele>
        <time>2013-02-20T09:17:41Z</time>
      </trkpt>
      <trkpt lat="42.890257" lon="0.894004">
        <ele>1189.3</ele>
        <time>2013-02-20T09:18:02Z</time>
      </trkpt>
      <trkpt lat="42.890192" lon="0.894122">
        <ele>1190.7</ele>
        <time>2013-02-20T09:18:19Z</time>
      </trkpt>
      <trkpt lat="42.890141" lon="0.894259">
        <ele>1193.6</ele>
        <time>2013-02-20T09:18:41Z</time>
      </trkpt>
      <trkpt lat="42.890108" lon="0.894419">
        <ele>1196.0</ele>
        <time>2013-02-20T09:19:02Z</time>
      </trkpt>
      <trkpt lat="42.890117" lon="0.894544">
        <ele>1198.9</ele>
        <time>2013-02-20T09:19:21Z</time>
      </trkpt>
      <trkpt lat="42.890173" lon="0.894618">
        <ele>1200.8</ele>
        <time>2013-02-20T09:19:37Z</time>
      </trkpt>
      <trkpt lat="42.890297" lon="0.894597">
        <ele>1202.8</ele>
        <time>2013-02-20T09:19:59Z</time>
      </trkpt>
      <trkpt lat="42.890419" lon="0.894604">
        <ele>1206.6</ele>
        <time>2013-02-20T09:20:24Z</time>
      </trkpt>
      <trkpt lat="42.890523" lon="0.894679">
        <ele>1210.0</ele>
        <time>2013-02-20T09:20:45Z</time>
      </trkpt>
      <trkpt lat="42.890601" lon="0.894762">
        <ele>1213.3</ele>
        <time>2013-02-20T09:21:08Z</time>
      </trkpt>
      <trkpt lat="42.890676" lon="0.894807">
        <ele>1217.7</ele>
        <time>2013-02-20T09:21:32Z</time>
      </trkpt>
      <trkpt lat="42.890787" lon="0.894826">
        <ele>1221.0</ele>
        <time>2013-02-20T09:21:56Z</time>
      </trkpt>
      <trkpt lat="42.890943" lon="0.894898">
        <ele>1224.9</ele>
        <time>2013-02-20T09:22:25Z</time>
      </trkpt>
      <trkpt lat="42.890877" lon="0.894897">
        <ele>1226.8</ele>
        <time>2013-02-20T09:27:27Z</time>
      </trkpt>
      <trkpt lat="42.891099" lon="0.895025">
        <ele>1232.6</ele>
        <time>2013-02-20T09:30:17Z</time>
      </trkpt>
      <trkpt lat="42.891158" lon="0.895147">
        <ele>1236.9</ele>
        <time>2013-02-20T09:30:38Z</time>
      </trkpt>
      <trkpt lat="42.891252" lon="0.895127">
        <ele>1240.7</ele>
        <time>2013-02-20T09:31:00Z</time>
      </trkpt>
      <trkpt lat="42.891361" lon="0.895157">
        <ele>1247.4</ele>
        <time>2013-02-20T09:31:22Z</time>
      </trkpt>
      <trkpt lat="42.891452" lon="0.895179">
        <ele>1249.4</ele>
        <time>2013-02-20T09:31:44Z</time>
      </trkpt>
      <trkpt lat="42.891569" lon="0.895239">
        <ele>1256.1</ele>
        <time>2013-02-20T09:32:17Z</time>
      </trkpt>
      <trkpt lat="42.891658" lon="0.895167">
        <ele>1258.5</ele>
        <time>2013-02-20T09:32:37Z</time>
      </trkpt>
      <trkpt lat="42.891753" lon="0.895093">
        <ele>1260.9</ele>
        <time>2013-02-20T09:34:10Z</time>
      </trkpt>
      <trkpt lat="42.891904" lon="0.895008">
        <ele>1263.3</ele>
        <time>2013-02-20T09:34:31Z</time>
      </trkpt>
      <trkpt lat="42.891956" lon="0.894901">
        <ele>1264.8</ele>
        <time>2013-02-20T09:35:01Z</time>
      </trkpt>
      <trkpt lat="42.892187" lon="0.894885">
        <ele>1269.1</ele>
        <time>2013-02-20T09:35:36Z</time>
      </trkpt>
      <trkpt lat="42.892325" lon="0.894851">
        <ele>1272.4</ele>
        <time>2013-02-20T09:36:02Z</time>
      </trkpt>
      <trkpt lat="42.892432" lon="0.894814">
        <ele>1274.8</ele>
        <time>2013-02-20T09:36:23Z</time>
      </trkpt>
      <trkpt lat="42.892576" lon="0.894704">
        <ele>1277.7</ele>
        <time>2013-02-20T09:36:47Z</time>
      </trkpt>
      <trkpt lat="42.892672" lon="0.894652">
        <ele>1280.1</ele>
        <time>2013-02-20T09:37:07Z</time>
      </trkpt>
      <trkpt lat="42.892841" lon="0.894653">
        <ele>1282.5</ele>
        <time>2013-02-20T09:37:39Z</time>
      </trkpt>
      <trkpt lat="42.892947" lon="0.894549">
        <ele>1284.9</ele>
        <time>2013-02-20T09:37:58Z</time>
      </trkpt>
      <trkpt lat="42.892935" lon="0.894689">
        <ele>1285.4</ele>
        <time>2013-02-20T09:39:28Z</time>
      </trkpt>
      <trkpt lat="42.893125" lon="0.894506">
        <ele>1286.4</ele>
        <time>2013-02-20T09:39:45Z</time>
      </trkpt>
      <trkpt lat="42.893213" lon="0.894445">
        <ele>1287.3</ele>
        <time>2013-02-20T09:39:59Z</time>
      </trkpt>
      <trkpt lat="42.893312" lon="0.894347">
        <ele>1287.8</ele>
        <time>2013-02-20T09:40:13Z</time>
      </trkpt>
      <trkpt lat="42.893472" lon="0.894310">
        <ele>1290.2</ele>
        <time>2013-02-20T09:40:35Z</time>
      </trkpt>
      <trkpt lat="42.893569" lon="0.894252">
        <ele>1293.1</ele>
        <time>2013-02-20T09:40:55Z</time>
      </trkpt>
      <trkpt lat="42.893697" lon="0.894201">
        <ele>1297.0</ele>
        <time>2013-02-20T09:41:16Z</time>
      </trkpt>
      <trkpt lat="42.893834" lon="0.894281">
        <ele>1300.3</ele>
        <time>2013-02-20T09:41:39Z</time>
      </trkpt>
      <trkpt lat="42.893767" lon="0.894464">
        <ele>1303.7</ele>
        <time>2013-02-20T09:42:00Z</time>
      </trkpt>
      <trkpt lat="42.893706" lon="0.894610">
        <ele>1306.1</ele>
        <time>2013-02-20T09:42:19Z</time>
      </trkpt>
      <trkpt lat="42.893651" lon="0.894745">
        <ele>1308.5</ele>
        <time>2013-02-20T09:42:36Z</time>
      </trkpt>
      <trkpt lat="42.893589" lon="0.894919">
        <ele>1309.9</ele>
        <time>2013-02-20T09:42:53Z</time>
      </trkpt>
      <trkpt lat="42.893543" lon="0.895087">
        <ele>1312.3</ele>
        <time>2013-02-20T09:43:15Z</time>
      </trkpt>
      <trkpt lat="42.893463" lon="0.895257">
        <ele>1315.7</ele>
        <time>2013-02-20T09:43:40Z</time>
      </trkpt>
      <trkpt lat="42.893398" lon="0.895421">
        <ele>1317.6</ele>
        <time>2013-02-20T09:43:59Z</time>
      </trkpt>
      <trkpt lat="42.893293" lon="0.895561">
        <ele>1319.6</ele>
        <time>2013-02-20T09:44:20Z</time>
      </trkpt>
      <trkpt lat="42.893238" lon="0.895787">
        <ele>1321.5</ele>
        <time>2013-02-20T09:44:39Z</time>
      </trkpt>
      <trkpt lat="42.893172" lon="0.895906">
        <ele>1324.3</ele>
        <time>2013-02-20T09:45:01Z</time>
      </trkpt>
      <trkpt lat="42.893087" lon="0.896101">
        <ele>1326.8</ele>
        <time>2013-02-20T09:45:23Z</time>
      </trkpt>
      <trkpt lat="42.893024" lon="0.896245">
        <ele>1329.2</ele>
        <time>2013-02-20T09:45:45Z</time>
      </trkpt>
      <trkpt lat="42.892928" lon="0.896414">
        <ele>1331.6</ele>
        <time>2013-02-20T09:46:08Z</time>
      </trkpt>
      <trkpt lat="42.892897" lon="0.896542">
        <ele>1333.5</ele>
        <time>2013-02-20T09:46:36Z</time>
      </trkpt>
      <trkpt lat="42.892881" lon="0.896715">
        <ele>1336.4</ele>
        <time>2013-02-20T09:46:56Z</time>
      </trkpt>
      <trkpt lat="42.892843" lon="0.896848">
        <ele>1338.3</ele>
        <time>2013-02-20T09:47:12Z</time>
      </trkpt>
      <trkpt lat="42.892791" lon="0.896998">
        <ele>1340.7</ele>
        <time>2013-02-20T09:47:29Z</time>
      </trkpt>
      <trkpt lat="42.892744" lon="0.897150">
        <ele>1343.1</ele>
        <time>2013-02-20T09:47:48Z</time>
      </trkpt>
      <trkpt lat="42.892718" lon="0.897325">
        <ele>1346.0</ele>
        <time>2013-02-20T09:48:08Z</time>
      </trkpt>
      <trkpt lat="42.892661" lon="0.897523">
        <ele>1347.9</ele>
        <time>2013-02-20T09:48:27Z</time>
      </trkpt>
      <trkpt lat="42.892648" lon="0.897722">
        <ele>1350.3</ele>
        <time>2013-02-20T09:48:51Z</time>
      </trkpt>
      <trkpt lat="42.892618" lon="0.897930">
        <ele>1352.2</ele>
        <time>2013-02-20T09:49:12Z</time>
      </trkpt>
      <trkpt lat="42.892578" lon="0.898130">
        <ele>1354.6</ele>
        <time>2013-02-20T09:49:36Z</time>
      </trkpt>
      <trkpt lat="42.892579" lon="0.898359">
        <ele>1357.0</ele>
        <time>2013-02-20T09:49:59Z</time>
      </trkpt>
      <trkpt lat="42.892546" lon="0.898526">
        <ele>1360.4</ele>
        <time>2013-02-20T09:50:18Z</time>
      </trkpt>
      <trkpt lat="42.892521" lon="0.898642">
        <ele>1361.4</ele>
        <time>2013-02-20T09:50:38Z</time>
      </trkpt>
      <trkpt lat="42.892470" lon="0.898859">
        <ele>1363.8</ele>
        <time>2013-02-20T09:51:03Z</time>
      </trkpt>
      <trkpt lat="42.892413" lon="0.898958">
        <ele>1365.2</ele>
        <time>2013-02-20T09:53:04Z</time>
      </trkpt>
      <trkpt lat="42.892378" lon="0.899018">
        <ele>1364.2</ele>
        <time>2013-02-20T09:55:51Z</time>
      </trkpt>
      <trkpt lat="42.892287" lon="0.899184">
        <ele>1363.3</ele>
        <time>2013-02-20T09:56:06Z</time>
      </trkpt>
      <trkpt lat="42.892170" lon="0.899365">
        <ele>1361.8</ele>
        <time>2013-02-20T09:56:23Z</time>
      </trkpt>
      <trkpt lat="42.892135" lon="0.899499">
        <ele>1361.8</ele>
        <time>2013-02-20T09:56:38Z</time>
      </trkpt>
      <trkpt lat="42.892056" lon="0.899673">
        <ele>1360.9</ele>
        <time>2013-02-20T09:56:55Z</time>
      </trkpt>
      <trkpt lat="42.891954" lon="0.899824">
        <ele>1359.4</ele>
        <time>2013-02-20T09:57:14Z</time>
      </trkpt>
      <trkpt lat="42.891821" lon="0.900004">
        <ele>1360.4</ele>
        <time>2013-02-20T09:57:35Z</time>
      </trkpt>
      <trkpt lat="42.891697" lon="0.900172">
        <ele>1359.0</ele>
        <time>2013-02-20T09:57:55Z</time>
      </trkpt>
      <trkpt lat="42.891550" lon="0.900315">
        <ele>1357.5</ele>
        <time>2013-02-20T09:58:17Z</time>
      </trkpt>
      <trkpt lat="42.891442" lon="0.900486">
        <ele>1356.1</ele>
        <time>2013-02-20T09:58:35Z</time>
      </trkpt>
      <trkpt lat="42.891322" lon="0.900635">
        <ele>1354.6</ele>
        <time>2013-02-20T09:58:56Z</time>
      </trkpt>
      <trkpt lat="42.891138" lon="0.900897">
        <ele>1353.2</ele>
        <time>2013-02-20T09:59:38Z</time>
      </trkpt>
      <trkpt lat="42.891033" lon="0.901028">
        <ele>1353.2</ele>
        <time>2013-02-20T10:00:44Z</time>
      </trkpt>
      <trkpt lat="42.890972" lon="0.901215">
        <ele>1353.2</ele>
        <time>2013-02-20T10:01:04Z</time>
      </trkpt>
      <trkpt lat="42.890835" lon="0.901254">
        <ele>1353.7</ele>
        <time>2013-02-20T10:02:56Z</time>
      </trkpt>
      <trkpt lat="42.890784" lon="0.901473">
        <ele>1352.2</ele>
        <time>2013-02-20T10:03:14Z</time>
      </trkpt>
      <trkpt lat="42.890662" lon="0.901414">
        <ele>1348.4</ele>
        <time>2013-02-20T10:03:31Z</time>
      </trkpt>
      <trkpt lat="42.890511" lon="0.901471">
        <ele>1342.1</ele>
        <time>2013-02-20T10:03:53Z</time>
        <name>Sortie de la foret</name>
      </trkpt>
      <trkpt lat="42.890466" lon="0.901535">
        <ele>1342.1</ele>
        <time>2013-02-20T10:07:19Z</time>
      </trkpt>
      <trkpt lat="42.890451" lon="0.901680">
        <ele>1343.6</ele>
        <time>2013-02-20T10:08:18Z</time>
      </trkpt>
      <trkpt lat="42.890388" lon="0.901763">
        <ele>1344.5</ele>
        <time>2013-02-20T10:08:31Z</time>
      </trkpt>
      <trkpt lat="42.890311" lon="0.901881">
        <ele>1346.5</ele>
        <time>2013-02-20T10:08:44Z</time>
      </trkpt>
      <trkpt lat="42.890224" lon="0.901994">
        <ele>1346.0</ele>
        <time>2013-02-20T10:08:58Z</time>
      </trkpt>
      <trkpt lat="42.890157" lon="0.902111">
        <ele>1345.5</ele>
        <time>2013-02-20T10:09:09Z</time>
      </trkpt>
      <trkpt lat="42.890140" lon="0.902218">
        <ele>1346.0</ele>
        <time>2013-02-20T10:09:21Z</time>
      </trkpt>
      <trkpt lat="42.890103" lon="0.902301">
        <ele>1347.4</ele>
        <time>2013-02-20T10:09:32Z</time>
      </trkpt>
      <trkpt lat="42.889995" lon="0.902330">
        <ele>1347.4</ele>
        <time>2013-02-20T10:09:44Z</time>
      </trkpt>
      <trkpt lat="42.889905" lon="0.902412">
        <ele>1347.9</ele>
        <time>2013-02-20T10:09:56Z</time>
      </trkpt>
      <trkpt lat="42.889826" lon="0.902504">
        <ele>1348.9</ele>
        <time>2013-02-20T10:10:09Z</time>
      </trkpt>
      <trkpt lat="42.889753" lon="0.902618">
        <ele>1349.8</ele>
        <time>2013-02-20T10:10:23Z</time>
      </trkpt>
      <trkpt lat="42.889690" lon="0.902729">
        <ele>1350.8</ele>
        <time>2013-02-20T10:10:36Z</time>
      </trkpt>
      <trkpt lat="42.889635" lon="0.902828">
        <ele>1352.2</ele>
        <time>2013-02-20T10:10:49Z</time>
      </trkpt>
      <trkpt lat="42.889590" lon="0.902935">
        <ele>1353.7</ele>
        <time>2013-02-20T10:11:02Z</time>
      </trkpt>
      <trkpt lat="42.889541" lon="0.903046">
        <ele>1356.6</ele>
        <time>2013-02-20T10:11:17Z</time>
      </trkpt>
      <trkpt lat="42.889551" lon="0.903136">
        <ele>1358.5</ele>
        <time>2013-02-20T10:12:16Z</time>
      </trkpt>
      <trkpt lat="42.889521" lon="0.903256">
        <ele>1360.4</ele>
        <time>2013-02-20T10:12:31Z</time>
      </trkpt>
      <trkpt lat="42.889513" lon="0.903364">
        <ele>1363.8</ele>
        <time>2013-02-20T10:12:45Z</time>
      </trkpt>
      <trkpt lat="42.889504" lon="0.903489">
        <ele>1366.2</ele>
        <time>2013-02-20T10:13:01Z</time>
      </trkpt>
      <trkpt lat="42.889491" lon="0.903608">
        <ele>1368.6</ele>
        <time>2013-02-20T10:13:19Z</time>
      </trkpt>
      <trkpt lat="42.889527" lon="0.903723">
        <ele>1372.9</ele>
        <time>2013-02-20T10:13:37Z</time>
      </trkpt>
      <trkpt lat="42.889487" lon="0.903851">
        <ele>1375.8</ele>
        <time>2013-02-20T10:13:53Z</time>
      </trkpt>
      <trkpt lat="42.889486" lon="0.903979">
        <ele>1379.2</ele>
        <time>2013-02-20T10:14:11Z</time>
      </trkpt>
      <trkpt lat="42.889486" lon="0.904091">
        <ele>1382.0</ele>
        <time>2013-02-20T10:14:27Z</time>
      </trkpt>
      <trkpt lat="42.889473" lon="0.904218">
        <ele>1385.4</ele>
        <time>2013-02-20T10:14:46Z</time>
      </trkpt>
      <trkpt lat="42.889509" lon="0.904310">
        <ele>1389.2</ele>
        <time>2013-02-20T10:15:05Z</time>
      </trkpt>
      <trkpt lat="42.889631" lon="0.904383">
        <ele>1393.1</ele>
        <time>2013-02-20T10:15:27Z</time>
      </trkpt>
      <trkpt lat="42.889676" lon="0.904493">
        <ele>1397.4</ele>
        <time>2013-02-20T10:15:47Z</time>
      </trkpt>
      <trkpt lat="42.889739" lon="0.904590">
        <ele>1400.8</ele>
        <time>2013-02-20T10:16:06Z</time>
      </trkpt>
      <trkpt lat="42.889787" lon="0.904684">
        <ele>1404.1</ele>
        <time>2013-02-20T10:16:28Z</time>
      </trkpt>
      <trkpt lat="42.889825" lon="0.904796">
        <ele>1407.5</ele>
        <time>2013-02-20T10:16:48Z</time>
      </trkpt>
      <trkpt lat="42.889877" lon="0.904871">
        <ele>1410.4</ele>
        <time>2013-02-20T10:17:47Z</time>
      </trkpt>
      <trkpt lat="42.889902" lon="0.904981">
        <ele>1413.8</ele>
        <time>2013-02-20T10:18:04Z</time>
      </trkpt>
      <trkpt lat="42.889971" lon="0.905076">
        <ele>1416.6</ele>
        <time>2013-02-20T10:18:21Z</time>
      </trkpt>
      <trkpt lat="42.890041" lon="0.905139">
        <ele>1419.5</ele>
        <time>2013-02-20T10:18:39Z</time>
      </trkpt>
      <trkpt lat="42.890108" lon="0.905210">
        <ele>1423.4</ele>
        <time>2013-02-20T10:18:59Z</time>
      </trkpt>
      <trkpt lat="42.890186" lon="0.905280">
        <ele>1426.2</ele>
        <time>2013-02-20T10:19:20Z</time>
      </trkpt>
      <trkpt lat="42.890259" lon="0.905354">
        <ele>1429.6</ele>
        <time>2013-02-20T10:19:43Z</time>
      </trkpt>
      <trkpt lat="42.890329" lon="0.905430">
        <ele>1433.5</ele>
        <time>2013-02-20T10:20:03Z</time>
      </trkpt>
      <trkpt lat="42.890422" lon="0.905468">
        <ele>1437.3</ele>
        <time>2013-02-20T10:20:30Z</time>
      </trkpt>
      <trkpt lat="42.890495" lon="0.905532">
        <ele>1440.7</ele>
        <time>2013-02-20T10:20:49Z</time>
      </trkpt>
      <trkpt lat="42.890582" lon="0.905597">
        <ele>1444.0</ele>
        <time>2013-02-20T10:21:08Z</time>
      </trkpt>
      <trkpt lat="42.890653" lon="0.905663">
        <ele>1448.4</ele>
        <time>2013-02-20T10:21:27Z</time>
      </trkpt>
      <trkpt lat="42.890740" lon="0.905693">
        <ele>1451.7</ele>
        <time>2013-02-20T10:21:47Z</time>
      </trkpt>
      <trkpt lat="42.890789" lon="0.905766">
        <ele>1454.1</ele>
        <time>2013-02-20T10:23:03Z</time>
      </trkpt>
      <trkpt lat="42.890835" lon="0.905835">
        <ele>1457.0</ele>
        <time>2013-02-20T10:23:31Z</time>
      </trkpt>
      <trkpt lat="42.890906" lon="0.905891">
        <ele>1460.9</ele>
        <time>2013-02-20T10:23:50Z</time>
      </trkpt>
      <trkpt lat="42.890970" lon="0.905960">
        <ele>1464.7</ele>
        <time>2013-02-20T10:24:16Z</time>
      </trkpt>
      <trkpt lat="42.891034" lon="0.906044">
        <ele>1467.6</ele>
        <time>2013-02-20T10:24:38Z</time>
      </trkpt>
      <trkpt lat="42.891104" lon="0.906122">
        <ele>1471.4</ele>
        <time>2013-02-20T10:25:00Z</time>
      </trkpt>
      <trkpt lat="42.891170" lon="0.906187">
        <ele>1475.3</ele>
        <time>2013-02-20T10:25:21Z</time>
      </trkpt>
      <trkpt lat="42.891244" lon="0.906230">
        <ele>1478.2</ele>
        <time>2013-02-20T10:25:40Z</time>
      </trkpt>
      <trkpt lat="42.891312" lon="0.906291">
        <ele>1481.5</ele>
        <time>2013-02-20T10:26:00Z</time>
      </trkpt>
      <trkpt lat="42.891373" lon="0.906359">
        <ele>1485.4</ele>
        <time>2013-02-20T10:26:19Z</time>
      </trkpt>
      <trkpt lat="42.891440" lon="0.906430">
        <ele>1488.7</ele>
        <time>2013-02-20T10:26:38Z</time>
      </trkpt>
      <trkpt lat="42.891508" lon="0.906493">
        <ele>1491.6</ele>
        <time>2013-02-20T10:26:56Z</time>
      </trkpt>
      <trkpt lat="42.891584" lon="0.906567">
        <ele>1494.0</ele>
        <time>2013-02-20T10:27:14Z</time>
      </trkpt>
      <trkpt lat="42.891646" lon="0.906634">
        <ele>1496.9</ele>
        <time>2013-02-20T10:27:31Z</time>
      </trkpt>
      <trkpt lat="42.891723" lon="0.906681">
        <ele>1498.8</ele>
        <time>2013-02-20T10:27:50Z</time>
      </trkpt>
      <trkpt lat="42.891803" lon="0.906722">
        <ele>1503.2</ele>
        <time>2013-02-20T10:28:09Z</time>
      </trkpt>
      <trkpt lat="42.891877" lon="0.906760">
        <ele>1507.0</ele>
        <time>2013-02-20T10:28:38Z</time>
      </trkpt>
      <trkpt lat="42.891958" lon="0.906784">
        <ele>1510.8</ele>
        <time>2013-02-20T10:28:59Z</time>
      </trkpt>
      <trkpt lat="42.892039" lon="0.906826">
        <ele>1514.7</ele>
        <time>2013-02-20T10:29:18Z</time>
      </trkpt>
      <trkpt lat="42.892130" lon="0.906860">
        <ele>1518.1</ele>
        <time>2013-02-20T10:29:40Z</time>
      </trkpt>
      <trkpt lat="42.892218" lon="0.906867">
        <ele>1522.4</ele>
        <time>2013-02-20T10:30:04Z</time>
      </trkpt>
      <trkpt lat="42.892314" lon="0.906867">
        <ele>1525.3</ele>
        <time>2013-02-20T10:30:23Z</time>
      </trkpt>
      <trkpt lat="42.892342" lon="0.906888">
        <ele>1524.3</ele>
        <time>2013-02-20T10:35:11Z</time>
      </trkpt>
      <trkpt lat="42.892436" lon="0.906858">
        <ele>1528.6</ele>
        <time>2013-02-20T10:35:27Z</time>
      </trkpt>
      <trkpt lat="42.892522" lon="0.906867">
        <ele>1530.1</ele>
        <time>2013-02-20T10:35:42Z</time>
      </trkpt>
      <trkpt lat="42.892624" lon="0.906836">
        <ele>1533.0</ele>
        <time>2013-02-20T10:35:59Z</time>
      </trkpt>
      <trkpt lat="42.892726" lon="0.906851">
        <ele>1535.8</ele>
        <time>2013-02-20T10:36:17Z</time>
      </trkpt>
      <trkpt lat="42.892812" lon="0.906841">
        <ele>1539.2</ele>
        <time>2013-02-20T10:36:39Z</time>
      </trkpt>
      <trkpt lat="42.892900" lon="0.906842">
        <ele>1544.0</ele>
        <time>2013-02-20T10:36:59Z</time>
      </trkpt>
      <trkpt lat="42.892998" lon="0.906828">
        <ele>1547.9</ele>
        <time>2013-02-20T10:37:21Z</time>
      </trkpt>
      <trkpt lat="42.893068" lon="0.906760">
        <ele>1552.7</ele>
        <time>2013-02-20T10:37:43Z</time>
      </trkpt>
      <trkpt lat="42.893151" lon="0.906821">
        <ele>1554.1</ele>
        <time>2013-02-20T10:38:01Z</time>
      </trkpt>
      <trkpt lat="42.893214" lon="0.906891">
        <ele>1557.0</ele>
        <time>2013-02-20T10:38:22Z</time>
      </trkpt>
      <trkpt lat="42.893345" lon="0.906918">
        <ele>1562.8</ele>
        <time>2013-02-20T10:38:57Z</time>
      </trkpt>
      <trkpt lat="42.893421" lon="0.906897">
        <ele>1567.1</ele>
        <time>2013-02-20T10:39:39Z</time>
      </trkpt>
      <trkpt lat="42.893518" lon="0.906868">
        <ele>1571.4</ele>
        <time>2013-02-20T10:40:12Z</time>
      </trkpt>
      <trkpt lat="42.893624" lon="0.906850">
        <ele>1576.2</ele>
        <time>2013-02-20T10:40:48Z</time>
      </trkpt>
      <trkpt lat="42.893716" lon="0.906869">
        <ele>1580.1</ele>
        <time>2013-02-20T10:41:08Z</time>
      </trkpt>
      <trkpt lat="42.893794" lon="0.906833">
        <ele>1584.4</ele>
        <time>2013-02-20T10:42:00Z</time>
      </trkpt>
      <trkpt lat="42.893814" lon="0.906745">
        <ele>1589.2</ele>
        <time>2013-02-20T10:42:28Z</time>
      </trkpt>
      <trkpt lat="42.893819" lon="0.906654">
        <ele>1593.0</ele>
        <time>2013-02-20T10:42:53Z</time>
      </trkpt>
      <trkpt lat="42.893903" lon="0.906663">
        <ele>1597.4</ele>
        <time>2013-02-20T10:43:22Z</time>
      </trkpt>
      <trkpt lat="42.894011" lon="0.906617">
        <ele>1601.2</ele>
        <time>2013-02-20T10:43:43Z</time>
      </trkpt>
      <trkpt lat="42.894084" lon="0.906576">
        <ele>1602.7</ele>
        <time>2013-02-20T10:44:23Z</time>
      </trkpt>
      <trkpt lat="42.894094" lon="0.906439">
        <ele>1604.6</ele>
        <time>2013-02-20T10:47:23Z</time>
      </trkpt>
      <trkpt lat="42.894038" lon="0.906349">
        <ele>1607.5</ele>
        <time>2013-02-20T10:47:53Z</time>
      </trkpt>
      <trkpt lat="42.893995" lon="0.906274">
        <ele>1612.8</ele>
        <time>2013-02-20T10:48:16Z</time>
      </trkpt>
      <trkpt lat="42.893972" lon="0.906175">
        <ele>1616.6</ele>
        <time>2013-02-20T10:48:35Z</time>
      </trkpt>
      <trkpt lat="42.894015" lon="0.906050">
        <ele>1620.9</ele>
        <time>2013-02-20T10:48:55Z</time>
      </trkpt>
      <trkpt lat="42.894004" lon="0.905962">
        <ele>1624.3</ele>
        <time>2013-02-20T10:49:13Z</time>
      </trkpt>
      <trkpt lat="42.894002" lon="0.905868">
        <ele>1627.7</ele>
        <time>2013-02-20T10:49:32Z</time>
      </trkpt>
      <trkpt lat="42.893955" lon="0.905800">
        <ele>1631.0</ele>
        <time>2013-02-20T10:50:16Z</time>
      </trkpt>
      <trkpt lat="42.893958" lon="0.905671">
        <ele>1633.4</ele>
        <time>2013-02-20T10:50:30Z</time>
      </trkpt>
      <trkpt lat="42.893996" lon="0.905565">
        <ele>1636.8</ele>
        <time>2013-02-20T10:50:48Z</time>
      </trkpt>
      <trkpt lat="42.893970" lon="0.905547">
        <ele>1639.7</ele>
        <time>2013-02-20T10:51:52Z</time>
      </trkpt>
      <trkpt lat="42.893941" lon="0.905465">
        <ele>1639.7</ele>
        <time>2013-02-20T10:56:09Z</time>
      </trkpt>
      <trkpt lat="42.893950" lon="0.905334">
        <ele>1638.2</ele>
        <time>2013-02-20T10:56:19Z</time>
      </trkpt>
      <trkpt lat="42.893972" lon="0.905186">
        <ele>1636.3</ele>
        <time>2013-02-20T10:56:30Z</time>
      </trkpt>
      <trkpt lat="42.894016" lon="0.905043">
        <ele>1637.3</ele>
        <time>2013-02-20T10:57:03Z</time>
      </trkpt>
      <trkpt lat="42.894057" lon="0.904920">
        <ele>1638.7</ele>
        <time>2013-02-20T10:57:33Z</time>
        <name>Pic de Nede</name>
      </trkpt>
      <trkpt lat="42.894069" lon="0.904810">
        <ele>1638.7</ele>
        <time>2013-02-20T10:59:02Z</time>
      </trkpt>
      <trkpt lat="42.894082" lon="0.904657">
        <ele>1637.7</ele>
        <time>2013-02-20T10:59:31Z</time>
      </trkpt>
      <trkpt lat="42.894133" lon="0.904536">
        <ele>1635.8</ele>
        <time>2013-02-20T10:59:40Z</time>
      </trkpt>
      <trkpt lat="42.894182" lon="0.904445">
        <ele>1635.3</ele>
        <time>2013-02-20T11:00:12Z</time>
      </trkpt>
      <trkpt lat="42.894186" lon="0.904318">
        <ele>1632.9</ele>
        <time>2013-02-20T11:00:24Z</time>
      </trkpt>
      <trkpt lat="42.894301" lon="0.904228">
        <ele>1634.9</ele>
        <time>2013-02-20T11:00:39Z</time>
      </trkpt>
      <trkpt lat="42.894397" lon="0.904128">
        <ele>1639.2</ele>
        <time>2013-02-20T11:01:07Z</time>
      </trkpt>
      <trkpt lat="42.894489" lon="0.904048">
        <ele>1642.1</ele>
        <time>2013-02-20T11:01:43Z</time>
      </trkpt>
      <trkpt lat="42.894573" lon="0.903898">
        <ele>1644.9</ele>
        <time>2013-02-20T11:02:05Z</time>
      </trkpt>
      <trkpt lat="42.894609" lon="0.903785">
        <ele>1644.9</ele>
        <time>2013-02-20T11:02:27Z</time>
      </trkpt>
      <trkpt lat="42.894713" lon="0.903717">
        <ele>1645.4</ele>
        <time>2013-02-20T11:02:47Z</time>
      </trkpt>
      <trkpt lat="42.894794" lon="0.903622">
        <ele>1644.9</ele>
        <time>2013-02-20T11:03:05Z</time>
      </trkpt>
      <trkpt lat="42.894830" lon="0.903555">
        <ele>1642.6</ele>
        <time>2013-02-20T11:04:54Z</time>
      </trkpt>
      <trkpt lat="42.894770" lon="0.903494">
        <ele>1641.6</ele>
        <time>2013-02-20T11:06:18Z</time>
      </trkpt>
      <trkpt lat="42.894802" lon="0.903554">
        <ele>1642.6</ele>
        <time>2013-02-20T11:09:56Z</time>
      </trkpt>
      <trkpt lat="42.894740" lon="0.903671">
        <ele>1644.0</ele>
        <time>2013-02-20T11:10:15Z</time>
      </trkpt>
      <trkpt lat="42.894674" lon="0.903778">
        <ele>1645.4</ele>
        <time>2013-02-20T11:10:27Z</time>
      </trkpt>
      <trkpt lat="42.894581" lon="0.903901">
        <ele>1644.5</ele>
        <time>2013-02-20T11:10:54Z</time>
      </trkpt>
      <trkpt lat="42.894501" lon="0.904047">
        <ele>1641.6</ele>
        <time>2013-02-20T11:11:12Z</time>
      </trkpt>
      <trkpt lat="42.894377" lon="0.904189">
        <ele>1636.8</ele>
        <time>2013-02-20T11:11:40Z</time>
      </trkpt>
      <trkpt lat="42.894304" lon="0.904326">
        <ele>1633.9</ele>
        <time>2013-02-20T11:11:52Z</time>
      </trkpt>
      <trkpt lat="42.894198" lon="0.904434">
        <ele>1633.9</ele>
        <time>2013-02-20T11:12:13Z</time>
      </trkpt>
      <trkpt lat="42.894129" lon="0.904564">
        <ele>1634.9</ele>
        <time>2013-02-20T11:12:25Z</time>
      </trkpt>
      <trkpt lat="42.894093" lon="0.904761">
        <ele>1638.2</ele>
        <time>2013-02-20T11:12:43Z</time>
      </trkpt>
      <trkpt lat="42.894046" lon="0.904908">
        <ele>1638.7</ele>
        <time>2013-02-20T11:49:46Z</time>
      </trkpt>
      <trkpt lat="42.894007" lon="0.904939">
        <ele>1639.2</ele>
        <time>2013-02-20T11:54:31Z</time>
      </trkpt>
      <trkpt lat="42.894026" lon="0.905007">
        <ele>1639.7</ele>
        <time>2013-02-20T11:59:45Z</time>
      </trkpt>
      <trkpt lat="42.893977" lon="0.905144">
        <ele>1637.3</ele>
        <time>2013-02-20T12:00:34Z</time>
      </trkpt>
      <trkpt lat="42.893971" lon="0.905311">
        <ele>1638.2</ele>
        <time>2013-02-20T12:00:47Z</time>
      </trkpt>
      <trkpt lat="42.893970" lon="0.905435">
        <ele>1639.7</ele>
        <time>2013-02-20T12:00:59Z</time>
      </trkpt>
      <trkpt lat="42.894009" lon="0.905554">
        <ele>1638.7</ele>
        <time>2013-02-20T12:01:19Z</time>
      </trkpt>
      <trkpt lat="42.893951" lon="0.905672">
        <ele>1636.3</ele>
        <time>2013-02-20T12:01:59Z</time>
      </trkpt>
      <trkpt lat="42.893928" lon="0.905794">
        <ele>1632.9</ele>
        <time>2013-02-20T12:02:27Z</time>
      </trkpt>
      <trkpt lat="42.894008" lon="0.905849">
        <ele>1629.1</ele>
        <time>2013-02-20T12:02:49Z</time>
      </trkpt>
      <trkpt lat="42.893991" lon="0.905949">
        <ele>1626.7</ele>
        <time>2013-02-20T12:03:25Z</time>
      </trkpt>
      <trkpt lat="42.894029" lon="0.906076">
        <ele>1623.3</ele>
        <time>2013-02-20T12:03:52Z</time>
      </trkpt>
      <trkpt lat="42.893996" lon="0.906204">
        <ele>1620.0</ele>
        <time>2013-02-20T12:04:11Z</time>
      </trkpt>
      <trkpt lat="42.894008" lon="0.906234">
        <ele>1615.6</ele>
        <time>2013-02-20T12:04:45Z</time>
      </trkpt>
      <trkpt lat="42.894057" lon="0.906340">
        <ele>1609.9</ele>
        <time>2013-02-20T12:05:12Z</time>
      </trkpt>
      <trkpt lat="42.894085" lon="0.906481">
        <ele>1606.0</ele>
        <time>2013-02-20T12:05:30Z</time>
      </trkpt>
      <trkpt lat="42.894063" lon="0.906600">
        <ele>1603.6</ele>
        <time>2013-02-20T12:05:48Z</time>
      </trkpt>
      <trkpt lat="42.893961" lon="0.906658">
        <ele>1602.2</ele>
        <time>2013-02-20T12:06:04Z</time>
      </trkpt>
      <trkpt lat="42.893879" lon="0.906678">
        <ele>1598.8</ele>
        <time>2013-02-20T12:06:26Z</time>
      </trkpt>
      <trkpt lat="42.893802" lon="0.906679">
        <ele>1595.0</ele>
        <time>2013-02-20T12:07:10Z</time>
      </trkpt>
      <trkpt lat="42.893795" lon="0.906779">
        <ele>1589.7</ele>
        <time>2013-02-20T12:07:34Z</time>
      </trkpt>
      <trkpt lat="42.893757" lon="0.906847">
        <ele>1585.8</ele>
        <time>2013-02-20T12:08:13Z</time>
      </trkpt>
      <trkpt lat="42.893693" lon="0.906871">
        <ele>1581.5</ele>
        <time>2013-02-20T12:09:23Z</time>
      </trkpt>
      <trkpt lat="42.893609" lon="0.906886">
        <ele>1578.1</ele>
        <time>2013-02-20T12:11:03Z</time>
      </trkpt>
      <trkpt lat="42.893518" lon="0.906885">
        <ele>1574.3</ele>
        <time>2013-02-20T12:11:34Z</time>
      </trkpt>
      <trkpt lat="42.893440" lon="0.906899">
        <ele>1570.4</ele>
        <time>2013-02-20T12:12:07Z</time>
      </trkpt>
      <trkpt lat="42.893360" lon="0.906923">
        <ele>1567.1</ele>
        <time>2013-02-20T12:12:48Z</time>
      </trkpt>
      <trkpt lat="42.893260" lon="0.906952">
        <ele>1561.8</ele>
        <time>2013-02-20T12:13:48Z</time>
      </trkpt>
      <trkpt lat="42.893180" lon="0.906941">
        <ele>1558.4</ele>
        <time>2013-02-20T12:14:42Z</time>
      </trkpt>
      <trkpt lat="42.893110" lon="0.906898">
        <ele>1556.0</ele>
        <time>2013-02-20T12:15:30Z</time>
      </trkpt>
      <trkpt lat="42.893040" lon="0.906854">
        <ele>1553.6</ele>
        <time>2013-02-20T12:15:48Z</time>
      </trkpt>
      <trkpt lat="42.892964" lon="0.906838">
        <ele>1551.2</ele>
        <time>2013-02-20T12:16:03Z</time>
      </trkpt>
      <trkpt lat="42.892882" lon="0.906837">
        <ele>1546.9</ele>
        <time>2013-02-20T12:16:16Z</time>
      </trkpt>
      <trkpt lat="42.892791" lon="0.906827">
        <ele>1543.1</ele>
        <time>2013-02-20T12:16:47Z</time>
      </trkpt>
      <trkpt lat="42.892723" lon="0.906857">
        <ele>1539.2</ele>
        <time>2013-02-20T12:17:23Z</time>
      </trkpt>
      <trkpt lat="42.892640" lon="0.906884">
        <ele>1535.8</ele>
        <time>2013-02-20T12:17:41Z</time>
      </trkpt>
      <trkpt lat="42.892548" lon="0.906884">
        <ele>1532.5</ele>
        <time>2013-02-20T12:17:52Z</time>
      </trkpt>
      <trkpt lat="42.892456" lon="0.906892">
        <ele>1530.1</ele>
        <time>2013-02-20T12:18:01Z</time>
      </trkpt>
      <trkpt lat="42.892368" lon="0.906886">
        <ele>1528.6</ele>
        <time>2013-02-20T12:18:31Z</time>
      </trkpt>
      <trkpt lat="42.892311" lon="0.906881">
        <ele>1525.3</ele>
        <time>2013-02-20T12:19:14Z</time>
      </trkpt>
      <trkpt lat="42.892208" lon="0.906892">
        <ele>1522.9</ele>
        <time>2013-02-20T12:19:43Z</time>
      </trkpt>
      <trkpt lat="42.892117" lon="0.906894">
        <ele>1519.5</ele>
        <time>2013-02-20T12:20:00Z</time>
      </trkpt>
      <trkpt lat="42.892024" lon="0.906878">
        <ele>1516.6</ele>
        <time>2013-02-20T12:20:15Z</time>
      </trkpt>
      <trkpt lat="42.891941" lon="0.906829">
        <ele>1511.8</ele>
        <time>2013-02-20T12:20:37Z</time>
      </trkpt>
      <trkpt lat="42.891861" lon="0.906787">
        <ele>1507.5</ele>
        <time>2013-02-20T12:20:55Z</time>
      </trkpt>
      <trkpt lat="42.891771" lon="0.906748">
        <ele>1503.6</ele>
        <time>2013-02-20T12:21:14Z</time>
      </trkpt>
      <trkpt lat="42.891683" lon="0.906705">
        <ele>1500.3</ele>
        <time>2013-02-20T12:21:25Z</time>
      </trkpt>
      <trkpt lat="42.891604" lon="0.906640">
        <ele>1496.4</ele>
        <time>2013-02-20T12:21:36Z</time>
      </trkpt>
      <trkpt lat="42.891534" lon="0.906566">
        <ele>1493.6</ele>
        <time>2013-02-20T12:21:46Z</time>
      </trkpt>
      <trkpt lat="42.891467" lon="0.906484">
        <ele>1490.2</ele>
        <time>2013-02-20T12:22:20Z</time>
      </trkpt>
      <trkpt lat="42.891395" lon="0.906421">
        <ele>1486.8</ele>
        <time>2013-02-20T12:22:47Z</time>
      </trkpt>
      <trkpt lat="42.891329" lon="0.906334">
        <ele>1482.5</ele>
        <time>2013-02-20T12:22:58Z</time>
      </trkpt>
      <trkpt lat="42.891260" lon="0.906269">
        <ele>1479.1</ele>
        <time>2013-02-20T12:23:10Z</time>
      </trkpt>
      <trkpt lat="42.891184" lon="0.906220">
        <ele>1475.3</ele>
        <time>2013-02-20T12:23:22Z</time>
      </trkpt>
      <trkpt lat="42.891106" lon="0.906166">
        <ele>1471.4</ele>
        <time>2013-02-20T12:23:36Z</time>
      </trkpt>
      <trkpt lat="42.891036" lon="0.906074">
        <ele>1467.6</ele>
        <time>2013-02-20T12:23:51Z</time>
      </trkpt>
      <trkpt lat="42.890969" lon="0.905992">
        <ele>1463.7</ele>
        <time>2013-02-20T12:24:02Z</time>
      </trkpt>
      <trkpt lat="42.890881" lon="0.905923">
        <ele>1459.9</ele>
        <time>2013-02-20T12:24:15Z</time>
      </trkpt>
      <trkpt lat="42.890807" lon="0.905845">
        <ele>1455.6</ele>
        <time>2013-02-20T12:24:27Z</time>
      </trkpt>
      <trkpt lat="42.890743" lon="0.905760">
        <ele>1452.2</ele>
        <time>2013-02-20T12:24:37Z</time>
      </trkpt>
      <trkpt lat="42.890659" lon="0.905697">
        <ele>1448.8</ele>
        <time>2013-02-20T12:24:48Z</time>
      </trkpt>
      <trkpt lat="42.890571" lon="0.905634">
        <ele>1444.0</ele>
        <time>2013-02-20T12:25:00Z</time>
      </trkpt>
      <trkpt lat="42.890494" lon="0.905570">
        <ele>1440.7</ele>
        <time>2013-02-20T12:25:11Z</time>
      </trkpt>
      <trkpt lat="42.890409" lon="0.905504">
        <ele>1436.8</ele>
        <time>2013-02-20T12:25:22Z</time>
      </trkpt>
      <trkpt lat="42.890331" lon="0.905433">
        <ele>1433.0</ele>
        <time>2013-02-20T12:25:34Z</time>
      </trkpt>
      <trkpt lat="42.890257" lon="0.905350">
        <ele>1429.6</ele>
        <time>2013-02-20T12:25:45Z</time>
      </trkpt>
      <trkpt lat="42.890189" lon="0.905257">
        <ele>1425.8</ele>
        <time>2013-02-20T12:25:57Z</time>
      </trkpt>
      <trkpt lat="42.890114" lon="0.905178">
        <ele>1422.4</ele>
        <time>2013-02-20T12:26:09Z</time>
      </trkpt>
      <trkpt lat="42.890048" lon="0.905108">
        <ele>1419.0</ele>
        <time>2013-02-20T12:26:21Z</time>
      </trkpt>
      <trkpt lat="42.889972" lon="0.905018">
        <ele>1415.2</ele>
        <time>2013-02-20T12:26:35Z</time>
      </trkpt>
      <trkpt lat="42.889873" lon="0.904919">
        <ele>1434.0</ele>
        <time>2013-02-20T12:28:53Z</time>
      </trkpt>
      <trkpt lat="42.889843" lon="0.904870">
        <ele>1407.5</ele>
        <time>2013-02-20T12:30:15Z</time>
      </trkpt>
      <trkpt lat="42.889767" lon="0.904780">
        <ele>1404.6</ele>
        <time>2013-02-20T12:31:04Z</time>
      </trkpt>
      <trkpt lat="42.889716" lon="0.904666">
        <ele>1400.8</ele>
        <time>2013-02-20T12:31:19Z</time>
      </trkpt>
      <trkpt lat="42.889659" lon="0.904569">
        <ele>1393.6</ele>
        <time>2013-02-20T12:31:29Z</time>
      </trkpt>
      <trkpt lat="42.889600" lon="0.904479">
        <ele>1393.1</ele>
        <time>2013-02-20T12:31:42Z</time>
      </trkpt>
      <trkpt lat="42.889539" lon="0.904397">
        <ele>1389.2</ele>
        <time>2013-02-20T12:31:59Z</time>
      </trkpt>
      <trkpt lat="42.889449" lon="0.904321">
        <ele>1388.3</ele>
        <time>2013-02-20T12:36:38Z</time>
      </trkpt>
      <trkpt lat="42.889387" lon="0.904256">
        <ele>1384.9</ele>
        <time>2013-02-20T12:37:05Z</time>
      </trkpt>
      <trkpt lat="42.889305" lon="0.904235">
        <ele>1381.1</ele>
        <time>2013-02-20T12:37:18Z</time>
      </trkpt>
      <trkpt lat="42.889230" lon="0.904244">
        <ele>1378.7</ele>
        <time>2013-02-20T12:37:29Z</time>
      </trkpt>
      <trkpt lat="42.889157" lon="0.904306">
        <ele>1377.7</ele>
        <time>2013-02-20T12:37:38Z</time>
      </trkpt>
      <trkpt lat="42.889074" lon="0.904225">
        <ele>1374.8</ele>
        <time>2013-02-20T12:37:49Z</time>
      </trkpt>
      <trkpt lat="42.889039" lon="0.904105">
        <ele>1370.5</ele>
        <time>2013-02-20T12:38:19Z</time>
      </trkpt>
      <trkpt lat="42.888970" lon="0.904035">
        <ele>1368.1</ele>
        <time>2013-02-20T12:38:30Z</time>
      </trkpt>
      <trkpt lat="42.888908" lon="0.903958">
        <ele>1365.2</ele>
        <time>2013-02-20T12:38:39Z</time>
      </trkpt>
      <trkpt lat="42.888856" lon="0.903877">
        <ele>1361.8</ele>
        <time>2013-02-20T12:38:51Z</time>
      </trkpt>
      <trkpt lat="42.888803" lon="0.903772">
        <ele>1359.0</ele>
        <time>2013-02-20T12:39:03Z</time>
      </trkpt>
      <trkpt lat="42.888735" lon="0.903690">
        <ele>1355.6</ele>
        <time>2013-02-20T12:39:14Z</time>
      </trkpt>
      <trkpt lat="42.888697" lon="0.903567">
        <ele>1352.7</ele>
        <time>2013-02-20T12:39:29Z</time>
      </trkpt>
      <trkpt lat="42.888639" lon="0.903476">
        <ele>1349.8</ele>
        <time>2013-02-20T12:39:46Z</time>
      </trkpt>
      <trkpt lat="42.888603" lon="0.903364">
        <ele>1346.9</ele>
        <time>2013-02-20T12:39:57Z</time>
      </trkpt>
      <trkpt lat="42.888562" lon="0.903259">
        <ele>1342.6</ele>
        <time>2013-02-20T12:40:08Z</time>
      </trkpt>
      <trkpt lat="42.888518" lon="0.903159">
        <ele>1339.7</ele>
        <time>2013-02-20T12:40:17Z</time>
      </trkpt>
      <trkpt lat="42.888477" lon="0.903047">
        <ele>1337.8</ele>
        <time>2013-02-20T12:40:40Z</time>
      </trkpt>
      <trkpt lat="42.888437" lon="0.902962">
        <ele>1334.9</ele>
        <time>2013-02-20T12:40:52Z</time>
      </trkpt>
      <trkpt lat="42.888394" lon="0.902867">
        <ele>1331.1</ele>
        <time>2013-02-20T12:41:05Z</time>
      </trkpt>
      <trkpt lat="42.888365" lon="0.902747">
        <ele>1329.2</ele>
        <time>2013-02-20T12:41:18Z</time>
      </trkpt>
      <trkpt lat="42.888325" lon="0.902605">
        <ele>1326.3</ele>
        <time>2013-02-20T12:41:29Z</time>
      </trkpt>
      <trkpt lat="42.888296" lon="0.902427">
        <ele>1323.4</ele>
        <time>2013-02-20T12:41:56Z</time>
      </trkpt>
      <trkpt lat="42.888275" lon="0.902298">
        <ele>1321.0</ele>
        <time>2013-02-20T12:42:07Z</time>
      </trkpt>
      <trkpt lat="42.888279" lon="0.902185">
        <ele>1317.6</ele>
        <time>2013-02-20T12:42:17Z</time>
      </trkpt>
      <trkpt lat="42.888253" lon="0.902059">
        <ele>1315.2</ele>
        <time>2013-02-20T12:42:27Z</time>
      </trkpt>
      <trkpt lat="42.888223" lon="0.901934">
        <ele>1312.3</ele>
        <time>2013-02-20T12:42:36Z</time>
      </trkpt>
      <trkpt lat="42.888133" lon="0.901854">
        <ele>1310.4</ele>
        <time>2013-02-20T12:42:51Z</time>
      </trkpt>
      <trkpt lat="42.888088" lon="0.901738">
        <ele>1308.5</ele>
        <time>2013-02-20T12:43:05Z</time>
      </trkpt>
      <trkpt lat="42.888006" lon="0.901676">
        <ele>1305.1</ele>
        <time>2013-02-20T12:43:17Z</time>
      </trkpt>
      <trkpt lat="42.888020" lon="0.901519">
        <ele>1302.2</ele>
        <time>2013-02-20T12:43:30Z</time>
      </trkpt>
      <trkpt lat="42.888060" lon="0.901379">
        <ele>1300.3</ele>
        <time>2013-02-20T12:43:43Z</time>
      </trkpt>
      <trkpt lat="42.888050" lon="0.901409">
        <ele>1298.9</ele>
        <time>2013-02-20T12:44:45Z</time>
      </trkpt>
      <trkpt lat="42.888071" lon="0.901182">
        <ele>1299.8</ele>
        <time>2013-02-20T12:49:42Z</time>
      </trkpt>
      <trkpt lat="42.888116" lon="0.901065">
        <ele>1294.6</ele>
        <time>2013-02-20T12:50:00Z</time>
      </trkpt>
      <trkpt lat="42.888217" lon="0.901021">
        <ele>1291.7</ele>
        <time>2013-02-20T12:50:15Z</time>
      </trkpt>
      <trkpt lat="42.888339" lon="0.900885">
        <ele>1288.8</ele>
        <time>2013-02-20T12:50:32Z</time>
      </trkpt>
      <trkpt lat="42.888440" lon="0.900772">
        <ele>1284.0</ele>
        <time>2013-02-20T12:50:51Z</time>
      </trkpt>
      <trkpt lat="42.888514" lon="0.900728">
        <ele>1284.0</ele>
        <time>2013-02-20T12:51:30Z</time>
      </trkpt>
      <trkpt lat="42.888569" lon="0.900730">
        <ele>1284.0</ele>
        <time>2013-02-20T12:52:25Z</time>
      </trkpt>
      <trkpt lat="42.888609" lon="0.900698">
        <ele>1285.9</ele>
        <time>2013-02-20T12:53:02Z</time>
      </trkpt>
      <trkpt lat="42.888619" lon="0.900487">
        <ele>1284.5</ele>
        <time>2013-02-20T12:53:26Z</time>
      </trkpt>
      <trkpt lat="42.888714" lon="0.900400">
        <ele>1284.9</ele>
        <time>2013-02-20T12:53:44Z</time>
      </trkpt>
      <trkpt lat="42.888755" lon="0.900298">
        <ele>1283.5</ele>
        <time>2013-02-20T12:54:17Z</time>
      </trkpt>
      <trkpt lat="42.888745" lon="0.900130">
        <ele>1281.1</ele>
        <time>2013-02-20T12:54:30Z</time>
      </trkpt>
      <trkpt lat="42.888697" lon="0.899965">
        <ele>1276.8</ele>
        <time>2013-02-20T12:54:44Z</time>
      </trkpt>
      <trkpt lat="42.888654" lon="0.899817">
        <ele>1273.4</ele>
        <time>2013-02-20T12:55:01Z</time>
      </trkpt>
      <trkpt lat="42.888603" lon="0.899685">
        <ele>1267.2</ele>
        <time>2013-02-20T12:55:24Z</time>
      </trkpt>
      <trkpt lat="42.888663" lon="0.899495">
        <ele>1263.8</ele>
        <time>2013-02-20T12:55:44Z</time>
      </trkpt>
      <trkpt lat="42.888714" lon="0.899339">
        <ele>1259.5</ele>
        <time>2013-02-20T12:56:01Z</time>
      </trkpt>
      <trkpt lat="42.888740" lon="0.899207">
        <ele>1261.4</ele>
        <time>2013-02-20T13:03:21Z</time>
      </trkpt>
      <trkpt lat="42.888739" lon="0.899115">
        <ele>1260.9</ele>
        <time>2013-02-20T13:05:09Z</time>
      </trkpt>
      <trkpt lat="42.888881" lon="0.899134">
        <ele>1260.4</ele>
        <time>2013-02-20T13:06:37Z</time>
      </trkpt>
      <trkpt lat="42.888902" lon="0.899020">
        <ele>1259.0</ele>
        <time>2013-02-20T13:06:48Z</time>
      </trkpt>
      <trkpt lat="42.888974" lon="0.898923">
        <ele>1259.5</ele>
        <time>2013-02-20T13:07:01Z</time>
      </trkpt>
      <trkpt lat="42.889036" lon="0.898824">
        <ele>1259.0</ele>
        <time>2013-02-20T13:07:14Z</time>
      </trkpt>
      <trkpt lat="42.889100" lon="0.898723">
        <ele>1257.5</ele>
        <time>2013-02-20T13:07:26Z</time>
      </trkpt>
      <trkpt lat="42.889183" lon="0.898683">
        <ele>1257.1</ele>
        <time>2013-02-20T13:07:38Z</time>
      </trkpt>
      <trkpt lat="42.889204" lon="0.898571">
        <ele>1256.6</ele>
        <time>2013-02-20T13:07:59Z</time>
      </trkpt>
      <trkpt lat="42.889285" lon="0.898470">
        <ele>1254.2</ele>
        <time>2013-02-20T13:08:13Z</time>
      </trkpt>
      <trkpt lat="42.889335" lon="0.898362">
        <ele>1254.2</ele>
        <time>2013-02-20T13:08:28Z</time>
      </trkpt>
      <trkpt lat="42.889427" lon="0.898284">
        <ele>1253.2</ele>
        <time>2013-02-20T13:08:42Z</time>
      </trkpt>
      <trkpt lat="42.889536" lon="0.898110">
        <ele>1251.8</ele>
        <time>2013-02-20T13:13:06Z</time>
      </trkpt>
      <trkpt lat="42.889559" lon="0.897973">
        <ele>1251.8</ele>
        <time>2013-02-20T13:13:19Z</time>
      </trkpt>
      <trkpt lat="42.889611" lon="0.897853">
        <ele>1251.3</ele>
        <time>2013-02-20T13:13:34Z</time>
      </trkpt>
      <trkpt lat="42.889619" lon="0.897711">
        <ele>1250.8</ele>
        <time>2013-02-20T13:13:48Z</time>
      </trkpt>
      <trkpt lat="42.889663" lon="0.897688">
        <ele>1249.8</ele>
        <time>2013-02-20T13:14:17Z</time>
      </trkpt>
      <trkpt lat="42.889653" lon="0.897538">
        <ele>1249.4</ele>
        <time>2013-02-20T13:14:34Z</time>
      </trkpt>
      <trkpt lat="42.889687" lon="0.897437">
        <ele>1250.3</ele>
        <time>2013-02-20T13:14:50Z</time>
      </trkpt>
      <trkpt lat="42.889706" lon="0.897321">
        <ele>1247.4</ele>
        <time>2013-02-20T13:15:12Z</time>
      </trkpt>
      <trkpt lat="42.889702" lon="0.897167">
        <ele>1246.0</ele>
        <time>2013-02-20T13:15:25Z</time>
      </trkpt>
      <trkpt lat="42.889656" lon="0.897140">
        <ele>1243.1</ele>
        <time>2013-02-20T13:16:22Z</time>
      </trkpt>
      <trkpt lat="42.889648" lon="0.897009">
        <ele>1241.2</ele>
        <time>2013-02-20T13:16:37Z</time>
      </trkpt>
      <trkpt lat="42.889705" lon="0.896815">
        <ele>1238.8</ele>
        <time>2013-02-20T13:16:56Z</time>
      </trkpt>
      <trkpt lat="42.889749" lon="0.896631">
        <ele>1235.9</ele>
        <time>2013-02-20T13:17:18Z</time>
      </trkpt>
      <trkpt lat="42.889783" lon="0.896433">
        <ele>1232.6</ele>
        <time>2013-02-20T13:17:37Z</time>
      </trkpt>
      <trkpt lat="42.889894" lon="0.896317">
        <ele>1233.0</ele>
        <time>2013-02-20T13:17:54Z</time>
      </trkpt>
      <trkpt lat="42.889922" lon="0.896176">
        <ele>1232.1</ele>
        <time>2013-02-20T13:18:09Z</time>
      </trkpt>
      <trkpt lat="42.889964" lon="0.896072">
        <ele>1230.6</ele>
        <time>2013-02-20T13:18:22Z</time>
      </trkpt>
      <trkpt lat="42.889947" lon="0.895925">
        <ele>1227.3</ele>
        <time>2013-02-20T13:18:37Z</time>
      </trkpt>
      <trkpt lat="42.889931" lon="0.895806">
        <ele>1224.9</ele>
        <time>2013-02-20T13:18:49Z</time>
      </trkpt>
      <trkpt lat="42.889938" lon="0.895633">
        <ele>1222.9</ele>
        <time>2013-02-20T13:19:04Z</time>
      </trkpt>
      <trkpt lat="42.889997" lon="0.895514">
        <ele>1220.1</ele>
        <time>2013-02-20T13:19:17Z</time>
      </trkpt>
      <trkpt lat="42.890072" lon="0.895407">
        <ele>1218.6</ele>
        <time>2013-02-20T13:19:30Z</time>
      </trkpt>
      <trkpt lat="42.890169" lon="0.895323">
        <ele>1216.7</ele>
        <time>2013-02-20T13:19:47Z</time>
      </trkpt>
      <trkpt lat="42.890262" lon="0.895345">
        <ele>1216.2</ele>
        <time>2013-02-20T13:20:09Z</time>
      </trkpt>
      <trkpt lat="42.890272" lon="0.895228">
        <ele>1213.8</ele>
        <time>2013-02-20T13:20:34Z</time>
      </trkpt>
      <trkpt lat="42.890285" lon="0.895089">
        <ele>1213.8</ele>
        <time>2013-02-20T13:21:02Z</time>
      </trkpt>
      <trkpt lat="42.890364" lon="0.894990">
        <ele>1215.7</ele>
        <time>2013-02-20T13:21:36Z</time>
      </trkpt>
      <trkpt lat="42.890264" lon="0.894905">
        <ele>1214.3</ele>
        <time>2013-02-20T13:22:14Z</time>
      </trkpt>
      <trkpt lat="42.890217" lon="0.894770">
        <ele>1211.9</ele>
        <time>2013-02-20T13:22:29Z</time>
      </trkpt>
      <trkpt lat="42.890209" lon="0.894561">
        <ele>1210.0</ele>
        <time>2013-02-20T13:22:47Z</time>
      </trkpt>
      <trkpt lat="42.890079" lon="0.894607">
        <ele>1210.0</ele>
        <time>2013-02-20T13:25:18Z</time>
      </trkpt>
      <trkpt lat="42.890023" lon="0.894496">
        <ele>1206.6</ele>
        <time>2013-02-20T13:25:33Z</time>
      </trkpt>
      <trkpt lat="42.890051" lon="0.894328">
        <ele>1204.7</ele>
        <time>2013-02-20T13:25:48Z</time>
      </trkpt>
      <trkpt lat="42.890094" lon="0.894150">
        <ele>1201.8</ele>
        <time>2013-02-20T13:26:01Z</time>
      </trkpt>
      <trkpt lat="42.890156" lon="0.893956">
        <ele>1199.4</ele>
        <time>2013-02-20T13:26:17Z</time>
      </trkpt>
      <trkpt lat="42.890234" lon="0.893824">
        <ele>1196.5</ele>
        <time>2013-02-20T13:26:34Z</time>
      </trkpt>
      <trkpt lat="42.890303" lon="0.893693">
        <ele>1195.1</ele>
        <time>2013-02-20T13:26:49Z</time>
      </trkpt>
      <trkpt lat="42.890378" lon="0.893583">
        <ele>1193.6</ele>
        <time>2013-02-20T13:27:03Z</time>
      </trkpt>
      <trkpt lat="42.890493" lon="0.893477">
        <ele>1193.1</ele>
        <time>2013-02-20T13:27:18Z</time>
      </trkpt>
      <trkpt lat="42.890621" lon="0.893321">
        <ele>1191.7</ele>
        <time>2013-02-20T13:27:38Z</time>
      </trkpt>
      <trkpt lat="42.890771" lon="0.893237">
        <ele>1191.2</ele>
        <time>2013-02-20T13:27:56Z</time>
      </trkpt>
      <trkpt lat="42.890855" lon="0.893118">
        <ele>1188.8</ele>
        <time>2013-02-20T13:28:14Z</time>
      </trkpt>
      <trkpt lat="42.890999" lon="0.893002">
        <ele>1186.9</ele>
        <time>2013-02-20T13:28:34Z</time>
      </trkpt>
      <trkpt lat="42.891107" lon="0.892871">
        <ele>1185.4</ele>
        <time>2013-02-20T13:28:50Z</time>
      </trkpt>
      <trkpt lat="42.891191" lon="0.892760">
        <ele>1184.0</ele>
        <time>2013-02-20T13:29:04Z</time>
      </trkpt>
      <trkpt lat="42.891295" lon="0.892609">
        <ele>1182.6</ele>
        <time>2013-02-20T13:29:18Z</time>
      </trkpt>
      <trkpt lat="42.891392" lon="0.892489">
        <ele>1180.6</ele>
        <time>2013-02-20T13:29:32Z</time>
      </trkpt>
      <trkpt lat="42.891523" lon="0.892419">
        <ele>1179.2</ele>
        <time>2013-02-20T13:29:47Z</time>
      </trkpt>
      <trkpt lat="42.891581" lon="0.892310">
        <ele>1177.3</ele>
        <time>2013-02-20T13:30:00Z</time>
      </trkpt>
      <trkpt lat="42.891655" lon="0.892221">
        <ele>1175.8</ele>
        <time>2013-02-20T13:30:13Z</time>
      </trkpt>
      <trkpt lat="42.891789" lon="0.892112">
        <ele>1175.8</ele>
        <time>2013-02-20T13:30:28Z</time>
      </trkpt>
      <trkpt lat="42.891891" lon="0.891976">
        <ele>1172.9</ele>
        <time>2013-02-20T13:30:43Z</time>
      </trkpt>
      <trkpt lat="42.891969" lon="0.891875">
        <ele>1171.5</ele>
        <time>2013-02-20T13:30:57Z</time>
      </trkpt>
      <trkpt lat="42.892068" lon="0.891823">
        <ele>1170.1</ele>
        <time>2013-02-20T13:31:13Z</time>
      </trkpt>
      <trkpt lat="42.892141" lon="0.891687">
        <ele>1170.5</ele>
        <time>2013-02-20T13:31:29Z</time>
      </trkpt>
      <trkpt lat="42.892267" lon="0.891593">
        <ele>1169.6</ele>
        <time>2013-02-20T13:31:46Z</time>
      </trkpt>
      <trkpt lat="42.892410" lon="0.891459">
        <ele>1169.1</ele>
        <time>2013-02-20T13:32:04Z</time>
      </trkpt>
      <trkpt lat="42.892502" lon="0.891330">
        <ele>1168.1</ele>
        <time>2013-02-20T13:32:20Z</time>
      </trkpt>
      <trkpt lat="42.892584" lon="0.891217">
        <ele>1166.7</ele>
        <time>2013-02-20T13:32:33Z</time>
      </trkpt>
      <trkpt lat="42.892657" lon="0.891109">
        <ele>1165.3</ele>
        <time>2013-02-20T13:32:46Z</time>
      </trkpt>
      <trkpt lat="42.892723" lon="0.891011">
        <ele>1162.8</ele>
        <time>2013-02-20T13:33:02Z</time>
      </trkpt>
      <trkpt lat="42.892776" lon="0.890891">
        <ele>1160.4</ele>
        <time>2013-02-20T13:33:17Z</time>
      </trkpt>
      <trkpt lat="42.892854" lon="0.890705">
        <ele>1158.5</ele>
        <time>2013-02-20T13:33:33Z</time>
      </trkpt>
      <trkpt lat="42.892920" lon="0.890559">
        <ele>1157.1</ele>
        <time>2013-02-20T13:33:49Z</time>
      </trkpt>
      <trkpt lat="42.893065" lon="0.890467">
        <ele>1155.2</ele>
        <time>2013-02-20T13:34:05Z</time>
      </trkpt>
      <trkpt lat="42.893194" lon="0.890414">
        <ele>1153.2</ele>
        <time>2013-02-20T13:34:22Z</time>
      </trkpt>
      <trkpt lat="42.893268" lon="0.890276">
        <ele>1151.3</ele>
        <time>2013-02-20T13:34:37Z</time>
      </trkpt>
      <trkpt lat="42.893375" lon="0.890182">
        <ele>1149.4</ele>
        <time>2013-02-20T13:34:53Z</time>
      </trkpt>
      <trkpt lat="42.893604" lon="0.890093">
        <ele>1147.5</ele>
        <time>2013-02-20T13:35:17Z</time>
      </trkpt>
      <trkpt lat="42.893716" lon="0.890019">
        <ele>1146.0</ele>
        <time>2013-02-20T13:35:34Z</time>
      </trkpt>
      <trkpt lat="42.893860" lon="0.889937">
        <ele>1146.0</ele>
        <time>2013-02-20T13:35:49Z</time>
      </trkpt>
      <trkpt lat="42.893971" lon="0.889851">
        <ele>1144.6</ele>
        <time>2013-02-20T13:36:07Z</time>
      </trkpt>
      <trkpt lat="42.894124" lon="0.889812">
        <ele>1143.1</ele>
        <time>2013-02-20T13:36:24Z</time>
      </trkpt>
      <trkpt lat="42.894252" lon="0.889814">
        <ele>1142.7</ele>
        <time>2013-02-20T13:36:42Z</time>
      </trkpt>
      <trkpt lat="42.894380" lon="0.889780">
        <ele>1141.2</ele>
        <time>2013-02-20T13:36:57Z</time>
      </trkpt>
      <trkpt lat="42.894473" lon="0.889705">
        <ele>1139.8</ele>
        <time>2013-02-20T13:37:11Z</time>
      </trkpt>
      <trkpt lat="42.894131" lon="0.889618">
        <ele>1132.6</ele>
        <time>2013-02-20T13:37:24Z</time>
      </trkpt>
      <trkpt lat="42.893753" lon="0.889626">
        <ele>1133.7</ele>
        <time>2013-02-20T13:39:36Z</time>
      </trkpt>
      <trkpt lat="42.893178" lon="0.889504">
        <ele>1129.0</ele>
        <time>2013-02-20T13:39:53Z</time>
      </trkpt>
      <trkpt lat="42.892704" lon="0.889844">
        <ele>1136.3</ele>
        <time>2013-02-20T13:40:10Z</time>
      </trkpt>
      <trkpt lat="42.892237" lon="0.890525">
        <ele>1148.6</ele>
        <time>2013-02-20T13:40:28Z</time>
      </trkpt>
      <trkpt lat="42.891898" lon="0.890517">
        <ele>1137.1</ele>
        <time>2013-02-20T13:40:51Z</time>
      </trkpt>
      <trkpt lat="42.890990" lon="0.891040">
        <ele>1132.1</ele>
        <time>2013-02-20T13:41:15Z</time>
      </trkpt>
      <trkpt lat="42.890561" lon="0.891151">
        <ele>1125.7</ele>
        <time>2013-02-20T13:41:39Z</time>
      </trkpt>
      <trkpt lat="42.890451" lon="0.890928">
        <ele>1114.6</ele>
        <time>2013-02-20T13:42:56Z</time>
      </trkpt>
      <trkpt lat="42.890850" lon="0.890479">
        <ele>1105.3</ele>
        <time>2013-02-20T13:43:52Z</time>
      </trkpt>
      <trkpt lat="42.891589" lon="0.889579">
        <ele>1094.9</ele>
        <time>2013-02-20T13:45:42Z</time>
      </trkpt>
      <trkpt lat="42.891836" lon="0.888635">
        <ele>1082.6</ele>
        <time>2013-02-20T13:46:05Z</time>
      </trkpt>
      <trkpt lat="42.891653" lon="0.887312">
        <ele>1065.3</ele>
        <time>2013-02-20T13:47:03Z</time>
      </trkpt>
      <trkpt lat="42.891486" lon="0.886118">
        <ele>1044.7</ele>
        <time>2013-02-20T13:47:34Z</time>
      </trkpt>
      <trkpt lat="42.891605" lon="0.886140">
        <ele>1043.9</ele>
        <time>2013-02-20T13:47:53Z</time>
      </trkpt>
      <trkpt lat="42.891661" lon="0.886628">
        <ele>1052.3</ele>
        <time>2013-02-20T13:48:07Z</time>
      </trkpt>
      <trkpt lat="42.891859" lon="0.887203">
        <ele>1064.1</ele>
        <time>2013-02-20T13:48:47Z</time>
      </trkpt>
      <trkpt lat="42.891963" lon="0.887290">
        <ele>1066.7</ele>
        <time>2013-02-20T13:49:18Z</time>
      </trkpt>
      <trkpt lat="42.892034" lon="0.887236">
        <ele>1065.5</ele>
        <time>2013-02-20T13:51:33Z</time>
      </trkpt>
      <trkpt lat="42.892130" lon="0.886650">
        <ele>1051.3</ele>
        <time>2013-02-20T13:52:07Z</time>
      </trkpt>
      <trkpt lat="42.892225" lon="0.886379">
        <ele>1045.3</ele>
        <time>2013-02-20T13:52:23Z</time>
      </trkpt>
      <trkpt lat="42.892322" lon="0.886348">
        <ele>1044.0</ele>
        <time>2013-02-20T13:53:34Z</time>
      </trkpt>
    </trkseg>
  </trk>
</gpx>

